sensor_id;sensor_type;location;lat;lon;timestamp;P1;durP1;ratioP1;P2;durP2;ratioP2
7693;SDS011;3889;48.162;11.510;2023-02-01T00:00:06;4.95;;;4.30;;
7693;SDS011;3889;48.162;11.510;2023-02-01T00:02:35;4.72;;;4.22;;
7693;SDS011;3889;48.162;11.510;2023-02-01T00:05:06;4.30;;;3.90;;
7693;SDS011;3889;48.162;11.510;2023-02-01T00:07:34;4.57;;;4.13;;
7693;SDS011;3889;48.162;11.510;2023-02-01T00:10:03;4.75;;;4.07;;
7693;SDS011;3889;48.162;11.510;2023-02-01T00:12:32;4.53;;;4.13;;
7693;SDS011;3889;48.162;11.510;2023-02-01T00:15:01;4.60;;;4.07;;
7693;SDS011;3889;48.162;11.510;2023-02-01T00:17:29;4.55;;;4.05;;
7693;SDS011;3889;48.162;11.510;2023-02-01T00:19:57;4.93;;;4.20;;
7693;SDS011;3889;48.162;11.510;2023-02-01T00:22:25;4.50;;;4.10;;
7693;SDS011;3889;48.162;11.510;2023-02-01T00:24:53;5.22;;;4.13;;
7693;SDS011;3889;48.162;11.510;2023-02-01T00:27:21;4.85;;;4.20;;
7693;SDS011;3889;48.162;11.510;2023-02-01T00:29:49;4.32;;;3.90;;
7693;SDS011;3889;48.162;11.510;2023-02-01T00:32:18;4.53;;;4.10;;
7693;SDS011;3889;48.162;11.510;2023-02-01T00:34:46;4.60;;;4.20;;
7693;SDS011;3889;48.162;11.510;2023-02-01T00:37:13;4.45;;;4.00;;
7693;SDS011;3889;48.162;11.510;2023-02-01T00:39:41;5.70;;;4.10;;
7693;SDS011;3889;48.162;11.510;2023-02-01T00:42:09;4.65;;;4.13;;
7693;SDS011;3889;48.162;11.510;2023-02-01T00:44:37;5.00;;;4.50;;
7693;SDS011;3889;48.162;11.510;2023-02-01T00:47:04;4.95;;;4.20;;
7693;SDS011;3889;48.162;11.510;2023-02-01T00:49:34;5.03;;;4.40;;
7693;SDS011;3889;48.162;11.510;2023-02-01T00:52:02;4.82;;;4.30;;
7693;SDS011;3889;48.162;11.510;2023-02-01T00:54:30;5.05;;;4.55;;
7693;SDS011;3889;48.162;11.510;2023-02-01T00:56:59;5.57;;;5.07;;
7693;SDS011;3889;48.162;11.510;2023-02-01T00:59:26;5.05;;;4.60;;
7693;SDS011;3889;48.162;11.510;2023-02-01T01:01:54;5.05;;;4.55;;
7693;SDS011;3889;48.162;11.510;2023-02-01T01:04:22;5.23;;;4.73;;
7693;SDS011;3889;48.162;11.510;2023-02-01T01:06:51;5.97;;;4.95;;
7693;SDS011;3889;48.162;11.510;2023-02-01T01:09:19;5.80;;;5.20;;
7693;SDS011;3889;48.162;11.510;2023-02-01T01:11:47;6.05;;;4.97;;
7693;SDS011;3889;48.162;11.510;2023-02-01T01:14:17;5.93;;;5.20;;
7693;SDS011;3889;48.162;11.510;2023-02-01T01:16:45;5.32;;;4.82;;
7693;SDS011;3889;48.162;11.510;2023-02-01T01:19:12;6.22;;;5.63;;
7693;SDS011;3889;48.162;11.510;2023-02-01T01:21:40;5.78;;;5.22;;
7693;SDS011;3889;48.162;11.510;2023-02-01T01:24:09;6.05;;;5.45;;
7693;SDS011;3889;48.162;11.510;2023-02-01T01:26:37;6.32;;;5.68;;
7693;SDS011;3889;48.162;11.510;2023-02-01T01:29:05;7.05;;;5.80;;
7693;SDS011;3889;48.162;11.510;2023-02-01T01:31:33;5.95;;;5.40;;
7693;SDS011;3889;48.162;11.510;2023-02-01T01:34:01;6.50;;;5.90;;
7693;SDS011;3889;48.162;11.510;2023-02-01T01:36:29;6.63;;;5.88;;
7693;SDS011;3889;48.162;11.510;2023-02-01T01:38:57;6.40;;;5.80;;
7693;SDS011;3889;48.162;11.510;2023-02-01T01:41:28;6.65;;;5.95;;
7693;SDS011;3889;48.162;11.510;2023-02-01T01:43:58;6.40;;;5.80;;
7693;SDS011;3889;48.162;11.510;2023-02-01T01:46:28;6.30;;;5.80;;
7693;SDS011;3889;48.162;11.510;2023-02-01T01:49:00;6.70;;;6.03;;
7693;SDS011;3889;48.162;11.510;2023-02-01T01:51:34;6.60;;;6.00;;
7693;SDS011;3889;48.162;11.510;2023-02-01T01:54:07;7.20;;;6.60;;
7693;SDS011;3889;48.162;11.510;2023-02-01T01:56:40;7.15;;;6.50;;
7693;SDS011;3889;48.162;11.510;2023-02-01T01:59:08;7.20;;;6.50;;
7693;SDS011;3889;48.162;11.510;2023-02-01T02:01:37;7.07;;;6.45;;
7693;SDS011;3889;48.162;11.510;2023-02-01T02:04:05;7.30;;;6.60;;
7693;SDS011;3889;48.162;11.510;2023-02-01T02:06:36;7.85;;;7.05;;
7693;SDS011;3889;48.162;11.510;2023-02-01T02:09:11;7.63;;;6.93;;
7693;SDS011;3889;48.162;11.510;2023-02-01T02:11:40;7.40;;;6.57;;
7693;SDS011;3889;48.162;11.510;2023-02-01T02:14:09;8.50;;;7.43;;
7693;SDS011;3889;48.162;11.510;2023-02-01T02:16:40;7.65;;;6.95;;
7693;SDS011;3889;48.162;11.510;2023-02-01T02:19:28;7.95;;;7.20;;
7693;SDS011;3889;48.162;11.510;2023-02-01T02:22:19;8.27;;;7.47;;
7693;SDS011;3889;48.162;11.510;2023-02-01T02:27:59;7.85;;;7.10;;
7693;SDS011;3889;48.162;11.510;2023-02-01T02:30:41;8.48;;;7.60;;
7693;SDS011;3889;48.162;11.510;2023-02-01T02:33:34;7.30;;;6.60;;
7693;SDS011;3889;48.162;11.510;2023-02-01T02:36:17;7.22;;;6.57;;
7693;SDS011;3889;48.162;11.510;2023-02-01T02:38:58;7.70;;;7.00;;
7693;SDS011;3889;48.162;11.510;2023-02-01T02:41:33;7.67;;;6.97;;
7693;SDS011;3889;48.162;11.510;2023-02-01T02:44:31;7.38;;;6.68;;
7693;SDS011;3889;48.162;11.510;2023-02-01T02:47:23;7.55;;;6.85;;
7693;SDS011;3889;48.162;11.510;2023-02-01T02:49:58;7.40;;;6.70;;
7693;SDS011;3889;48.162;11.510;2023-02-01T02:52:51;7.78;;;7.05;;
7693;SDS011;3889;48.162;11.510;2023-02-01T02:55:41;7.35;;;6.65;;
7693;SDS011;3889;48.162;11.510;2023-02-01T02:58:10;7.65;;;6.85;;
7693;SDS011;3889;48.162;11.510;2023-02-01T03:00:57;8.13;;;7.32;;
7693;SDS011;3889;48.162;11.510;2023-02-01T03:03:43;6.93;;;6.23;;
7693;SDS011;3889;48.162;11.510;2023-02-01T03:06:31;7.28;;;6.57;;
7693;SDS011;3889;48.162;11.510;2023-02-01T03:09:01;6.95;;;6.10;;
7693;SDS011;3889;48.162;11.510;2023-02-01T03:11:34;6.72;;;6.13;;
7693;SDS011;3889;48.162;11.510;2023-02-01T03:14:16;6.68;;;5.88;;
7693;SDS011;3889;48.162;11.510;2023-02-01T03:16:51;6.15;;;5.65;;
7693;SDS011;3889;48.162;11.510;2023-02-01T03:19:25;6.45;;;5.85;;
7693;SDS011;3889;48.162;11.510;2023-02-01T03:21:59;6.53;;;5.90;;
7693;SDS011;3889;48.162;11.510;2023-02-01T03:24:30;6.43;;;5.82;;
7693;SDS011;3889;48.162;11.510;2023-02-01T03:27:01;6.38;;;5.78;;
7693;SDS011;3889;48.162;11.510;2023-02-01T03:29:36;6.10;;;5.50;;
7693;SDS011;3889;48.162;11.510;2023-02-01T03:32:07;6.28;;;5.07;;
7693;SDS011;3889;48.162;11.510;2023-02-01T03:34:36;5.50;;;5.00;;
7693;SDS011;3889;48.162;11.510;2023-02-01T03:37:06;6.38;;;5.28;;
7693;SDS011;3889;48.162;11.510;2023-02-01T03:39:38;6.38;;;5.68;;
7693;SDS011;3889;48.162;11.510;2023-02-01T03:42:12;6.03;;;5.53;;
7693;SDS011;3889;48.162;11.510;2023-02-01T03:44:46;5.57;;;5.07;;
7693;SDS011;3889;48.162;11.510;2023-02-01T03:47:19;5.63;;;5.03;;
7693;SDS011;3889;48.162;11.510;2023-02-01T03:49:49;6.20;;;5.40;;
7693;SDS011;3889;48.162;11.510;2023-02-01T03:52:23;6.53;;;5.93;;
7693;SDS011;3889;48.162;11.510;2023-02-01T03:54:55;6.00;;;5.45;;
7693;SDS011;3889;48.162;11.510;2023-02-01T03:57:25;5.57;;;5.07;;
7693;SDS011;3889;48.162;11.510;2023-02-01T04:00:03;6.55;;;5.40;;
7693;SDS011;3889;48.162;11.510;2023-02-01T04:02:33;5.95;;;5.35;;
7693;SDS011;3889;48.162;11.510;2023-02-01T04:05:01;6.07;;;5.57;;
7693;SDS011;3889;48.162;11.510;2023-02-01T04:07:30;5.88;;;5.38;;
7693;SDS011;3889;48.162;11.510;2023-02-01T04:09:58;6.13;;;5.28;;
7693;SDS011;3889;48.162;11.510;2023-02-01T04:12:26;5.50;;;5.00;;
7693;SDS011;3889;48.162;11.510;2023-02-01T04:14:54;6.53;;;5.40;;
7693;SDS011;3889;48.162;11.510;2023-02-01T04:17:22;5.85;;;5.35;;
7693;SDS011;3889;48.162;11.510;2023-02-01T04:19:50;6.20;;;5.60;;
7693;SDS011;3889;48.162;11.510;2023-02-01T04:22:20;5.72;;;5.13;;
7693;SDS011;3889;48.162;11.510;2023-02-01T04:24:49;6.10;;;5.50;;
7693;SDS011;3889;48.162;11.510;2023-02-01T04:27:17;6.00;;;5.50;;
7693;SDS011;3889;48.162;11.510;2023-02-01T04:29:45;6.82;;;5.95;;
7693;SDS011;3889;48.162;11.510;2023-02-01T04:32:13;6.10;;;5.50;;
7693;SDS011;3889;48.162;11.510;2023-02-01T04:34:42;6.50;;;5.78;;
7693;SDS011;3889;48.162;11.510;2023-02-01T04:37:09;6.75;;;6.07;;
7693;SDS011;3889;48.162;11.510;2023-02-01T04:39:37;6.30;;;5.55;;
7693;SDS011;3889;48.162;11.510;2023-02-01T04:42:06;6.18;;;5.57;;
7693;SDS011;3889;48.162;11.510;2023-02-01T04:44:34;6.38;;;5.82;;
7693;SDS011;3889;48.162;11.510;2023-02-01T04:47:05;6.50;;;5.90;;
7693;SDS011;3889;48.162;11.510;2023-02-01T04:49:33;6.20;;;5.55;;
7693;SDS011;3889;48.162;11.510;2023-02-01T04:52:01;6.00;;;5.50;;
7693;SDS011;3889;48.162;11.510;2023-02-01T04:54:29;5.80;;;5.30;;
7693;SDS011;3889;48.162;11.510;2023-02-01T04:56:56;6.57;;;5.80;;
7693;SDS011;3889;48.162;11.510;2023-02-01T04:59:26;6.15;;;5.63;;
7693;SDS011;3889;48.162;11.510;2023-02-01T05:01:54;6.85;;;6.15;;
7693;SDS011;3889;48.162;11.510;2023-02-01T05:04:22;6.30;;;5.70;;
7693;SDS011;3889;48.162;11.510;2023-02-01T05:06:50;6.70;;;5.95;;
7693;SDS011;3889;48.162;11.510;2023-02-01T05:09:18;7.40;;;6.70;;
7693;SDS011;3889;48.162;11.510;2023-02-01T05:11:47;6.95;;;6.28;;
7693;SDS011;3889;48.162;11.510;2023-02-01T05:14:34;6.93;;;6.32;;
7693;SDS011;3889;48.162;11.510;2023-02-01T05:17:02;6.60;;;6.00;;
7693;SDS011;3889;48.162;11.510;2023-02-01T05:19:30;7.07;;;6.40;;
7693;SDS011;3889;48.162;11.510;2023-02-01T05:21:58;7.07;;;6.38;;
7693;SDS011;3889;48.162;11.510;2023-02-01T05:24:26;6.88;;;6.25;;
7693;SDS011;3889;48.162;11.510;2023-02-01T05:26:53;6.25;;;5.75;;
7693;SDS011;3889;48.162;11.510;2023-02-01T05:29:21;7.18;;;6.47;;
7693;SDS011;3889;48.162;11.510;2023-02-01T05:31:51;6.43;;;5.90;;
7693;SDS011;3889;48.162;11.510;2023-02-01T05:34:18;6.95;;;6.35;;
7693;SDS011;3889;48.162;11.510;2023-02-01T05:36:46;7.43;;;6.70;;
7693;SDS011;3889;48.162;11.510;2023-02-01T05:39:14;7.30;;;6.60;;
7693;SDS011;3889;48.162;11.510;2023-02-01T05:41:42;6.78;;;6.10;;
7693;SDS011;3889;48.162;11.510;2023-02-01T05:44:10;7.82;;;7.03;;
7693;SDS011;3889;48.162;11.510;2023-02-01T05:46:38;6.77;;;6.17;;
7693;SDS011;3889;48.162;11.510;2023-02-01T05:49:07;6.97;;;6.28;;
7693;SDS011;3889;48.162;11.510;2023-02-01T05:51:35;6.97;;;6.28;;
7693;SDS011;3889;48.162;11.510;2023-02-01T05:54:03;7.47;;;6.65;;
7693;SDS011;3889;48.162;11.510;2023-02-01T05:56:31;7.13;;;6.43;;
7693;SDS011;3889;48.162;11.510;2023-02-01T05:58:59;6.68;;;6.07;;
7693;SDS011;3889;48.162;11.510;2023-02-01T06:01:29;7.30;;;6.60;;
7693;SDS011;3889;48.162;11.510;2023-02-01T06:03:57;6.85;;;6.18;;
7693;SDS011;3889;48.162;11.510;2023-02-01T06:06:26;6.68;;;6.07;;
7693;SDS011;3889;48.162;11.510;2023-02-01T06:08:55;7.30;;;6.63;;
7693;SDS011;3889;48.162;11.510;2023-02-01T06:11:22;7.43;;;6.73;;
7693;SDS011;3889;48.162;11.510;2023-02-01T06:13:58;7.25;;;6.25;;
7693;SDS011;3889;48.162;11.510;2023-02-01T06:16:26;7.95;;;6.50;;
7693;SDS011;3889;48.162;11.510;2023-02-01T06:18:54;7.43;;;6.22;;
7693;SDS011;3889;48.162;11.510;2023-02-01T06:21:22;7.07;;;6.35;;
7693;SDS011;3889;48.162;11.510;2023-02-01T06:23:52;6.80;;;6.10;;
7693;SDS011;3889;48.162;11.510;2023-02-01T06:26:20;8.70;;;6.13;;
7693;SDS011;3889;48.162;11.510;2023-02-01T06:28:48;6.95;;;6.10;;
7693;SDS011;3889;48.162;11.510;2023-02-01T06:31:17;7.25;;;6.55;;
7693;SDS011;3889;48.162;11.510;2023-02-01T06:33:45;6.80;;;6.18;;
7693;SDS011;3889;48.162;11.510;2023-02-01T06:36:13;6.60;;;6.00;;
7693;SDS011;3889;48.162;11.510;2023-02-01T06:38:41;8.30;;;6.30;;
7693;SDS011;3889;48.162;11.510;2023-02-01T06:41:11;8.07;;;6.53;;
7693;SDS011;3889;48.162;11.510;2023-02-01T06:43:39;6.90;;;6.20;;
7693;SDS011;3889;48.162;11.510;2023-02-01T06:46:07;7.07;;;6.40;;
7693;SDS011;3889;48.162;11.510;2023-02-01T06:48:38;6.78;;;6.07;;
7693;SDS011;3889;48.162;11.510;2023-02-01T06:51:12;6.90;;;6.20;;
7693;SDS011;3889;48.162;11.510;2023-02-01T06:53:51;7.28;;;5.93;;
7693;SDS011;3889;48.162;11.510;2023-02-01T06:56:20;6.63;;;6.03;;
7693;SDS011;3889;48.162;11.510;2023-02-01T06:58:48;6.90;;;6.30;;
7693;SDS011;3889;48.162;11.510;2023-02-01T07:01:16;6.20;;;5.60;;
7693;SDS011;3889;48.162;11.510;2023-02-01T07:03:46;6.43;;;5.82;;
7693;SDS011;3889;48.162;11.510;2023-02-01T07:06:16;6.97;;;5.47;;
7693;SDS011;3889;48.162;11.510;2023-02-01T07:08:44;6.13;;;5.63;;
7693;SDS011;3889;48.162;11.510;2023-02-01T07:11:13;6.47;;;5.47;;
7693;SDS011;3889;48.162;11.510;2023-02-01T07:13:43;6.07;;;5.47;;
7693;SDS011;3889;48.162;11.510;2023-02-01T07:16:13;6.10;;;5.50;;
7693;SDS011;3889;48.162;11.510;2023-02-01T07:18:41;6.32;;;5.57;;
7693;SDS011;3889;48.162;11.510;2023-02-01T07:21:09;5.63;;;5.07;;
7693;SDS011;3889;48.162;11.510;2023-02-01T07:23:38;5.20;;;4.80;;
7693;SDS011;3889;48.162;11.510;2023-02-01T07:26:06;5.18;;;4.68;;
7693;SDS011;3889;48.162;11.510;2023-02-01T07:28:35;5.63;;;5.07;;
7693;SDS011;3889;48.162;11.510;2023-02-01T07:31:06;5.80;;;5.10;;
7693;SDS011;3889;48.162;11.510;2023-02-01T07:33:35;4.95;;;4.47;;
7693;SDS011;3889;48.162;11.510;2023-02-01T07:36:04;5.30;;;4.80;;
7693;SDS011;3889;48.162;11.510;2023-02-01T07:38:33;5.03;;;4.63;;
7693;SDS011;3889;48.162;11.510;2023-02-01T07:41:02;5.00;;;4.50;;
7693;SDS011;3889;48.162;11.510;2023-02-01T07:43:31;5.38;;;4.80;;
7693;SDS011;3889;48.162;11.510;2023-02-01T07:45:59;5.40;;;4.53;;
7693;SDS011;3889;48.162;11.510;2023-02-01T07:48:30;5.38;;;4.30;;
7693;SDS011;3889;48.162;11.510;2023-02-01T07:50:59;4.47;;;4.07;;
7693;SDS011;3889;48.162;11.510;2023-02-01T07:53:28;4.65;;;4.25;;
7693;SDS011;3889;48.162;11.510;2023-02-01T07:55:57;5.05;;;4.53;;
7693;SDS011;3889;48.162;11.510;2023-02-01T07:58:25;5.95;;;4.10;;
7693;SDS011;3889;48.162;11.510;2023-02-01T08:00:54;4.50;;;4.10;;
7693;SDS011;3889;48.162;11.510;2023-02-01T08:03:41;4.20;;;3.80;;
7693;SDS011;3889;48.162;11.510;2023-02-01T08:06:09;4.22;;;3.80;;
7693;SDS011;3889;48.162;11.510;2023-02-01T08:08:37;4.05;;;3.65;;
7693;SDS011;3889;48.162;11.510;2023-02-01T08:11:05;4.32;;;3.70;;
7693;SDS011;3889;48.162;11.510;2023-02-01T08:13:34;4.65;;;4.22;;
7693;SDS011;3889;48.162;11.510;2023-02-01T08:16:03;4.43;;;3.30;;
7693;SDS011;3889;48.162;11.510;2023-02-01T08:18:32;3.97;;;3.58;;
7693;SDS011;3889;48.162;11.510;2023-02-01T08:21:06;3.50;;;3.20;;
7693;SDS011;3889;48.162;11.510;2023-02-01T08:23:35;3.50;;;3.20;;
7693;SDS011;3889;48.162;11.510;2023-02-01T08:26:04;3.72;;;3.38;;
7693;SDS011;3889;48.162;11.510;2023-02-01T08:28:36;4.00;;;3.60;;
7693;SDS011;3889;48.162;11.510;2023-02-01T08:31:06;3.78;;;3.40;;
7693;SDS011;3889;48.162;11.510;2023-02-01T08:33:34;4.00;;;3.30;;
7693;SDS011;3889;48.162;11.510;2023-02-01T08:36:04;3.80;;;3.50;;
7693;SDS011;3889;48.162;11.510;2023-02-01T08:38:34;5.10;;;3.50;;
7693;SDS011;3889;48.162;11.510;2023-02-01T08:41:04;5.03;;;3.72;;
7693;SDS011;3889;48.162;11.510;2023-02-01T08:43:33;6.50;;;3.95;;
7693;SDS011;3889;48.162;11.510;2023-02-01T08:46:01;3.83;;;3.42;;
7693;SDS011;3889;48.162;11.510;2023-02-01T08:48:29;3.80;;;3.50;;
7693;SDS011;3889;48.162;11.510;2023-02-01T08:50:57;3.88;;;3.50;;
7693;SDS011;3889;48.162;11.510;2023-02-01T08:53:29;4.38;;;3.28;;
7693;SDS011;3889;48.162;11.510;2023-02-01T08:55:56;4.13;;;3.40;;
7693;SDS011;3889;48.162;11.510;2023-02-01T08:58:24;5.32;;;3.80;;
7693;SDS011;3889;48.162;11.510;2023-02-01T09:00:52;5.00;;;3.58;;
7693;SDS011;3889;48.162;11.510;2023-02-01T09:03:20;4.18;;;3.65;;
7693;SDS011;3889;48.162;11.510;2023-02-01T09:05:48;6.63;;;3.38;;
7693;SDS011;3889;48.162;11.510;2023-02-01T09:08:19;4.90;;;3.80;;
7693;SDS011;3889;48.162;11.510;2023-02-01T09:10:48;4.60;;;3.22;;
7693;SDS011;3889;48.162;11.510;2023-02-01T09:13:16;3.80;;;3.40;;
7693;SDS011;3889;48.162;11.510;2023-02-01T09:15:44;4.57;;;3.80;;
7693;SDS011;3889;48.162;11.510;2023-02-01T09:18:12;4.13;;;3.10;;
7693;SDS011;3889;48.162;11.510;2023-02-01T09:20:40;5.40;;;3.10;;
7693;SDS011;3889;48.162;11.510;2023-02-01T09:23:08;6.43;;;3.33;;
7693;SDS011;3889;48.162;11.510;2023-02-01T09:25:36;3.75;;;3.30;;
7693;SDS011;3889;48.162;11.510;2023-02-01T09:28:06;4.25;;;3.33;;
7693;SDS011;3889;48.162;11.510;2023-02-01T09:30:35;4.10;;;3.50;;
7693;SDS011;3889;48.162;11.510;2023-02-01T09:33:04;3.55;;;3.10;;
7693;SDS011;3889;48.162;11.510;2023-02-01T09:35:32;3.70;;;3.35;;
7693;SDS011;3889;48.162;11.510;2023-02-01T09:38:00;4.25;;;3.10;;
7693;SDS011;3889;48.162;11.510;2023-02-01T09:40:27;4.50;;;3.30;;
7693;SDS011;3889;48.162;11.510;2023-02-01T09:43:01;3.92;;;3.15;;
7693;SDS011;3889;48.162;11.510;2023-02-01T09:45:40;3.50;;;3.08;;
7693;SDS011;3889;48.162;11.510;2023-02-01T09:48:15;4.03;;;3.10;;
7693;SDS011;3889;48.162;11.510;2023-02-01T09:50:47;4.72;;;3.17;;
7693;SDS011;3889;48.162;11.510;2023-02-01T09:53:20;4.90;;;3.00;;
7693;SDS011;3889;48.162;11.510;2023-02-01T09:55:53;3.88;;;3.00;;
7693;SDS011;3889;48.162;11.510;2023-02-01T09:58:24;3.65;;;3.35;;
7693;SDS011;3889;48.162;11.510;2023-02-01T10:00:58;4.75;;;3.28;;
7693;SDS011;3889;48.162;11.510;2023-02-01T10:03:29;4.47;;;3.53;;
7693;SDS011;3889;48.162;11.510;2023-02-01T10:06:19;3.20;;;2.90;;
7693;SDS011;3889;48.162;11.510;2023-02-01T10:09:09;4.47;;;2.95;;
7693;SDS011;3889;48.162;11.510;2023-02-01T10:11:47;3.17;;;2.95;;
7693;SDS011;3889;48.162;11.510;2023-02-01T10:14:42;4.60;;;3.20;;
7693;SDS011;3889;48.162;11.510;2023-02-01T10:17:25;3.72;;;3.40;;
7693;SDS011;3889;48.162;11.510;2023-02-01T10:20:10;6.55;;;3.40;;
7693;SDS011;3889;48.162;11.510;2023-02-01T10:22:44;4.53;;;3.63;;
7693;SDS011;3889;48.162;11.510;2023-02-01T10:25:36;5.55;;;3.75;;
7693;SDS011;3889;48.162;11.510;2023-02-01T10:28:09;3.60;;;3.30;;
7693;SDS011;3889;48.162;11.510;2023-02-01T10:30:45;4.15;;;3.47;;
7693;SDS011;3889;48.162;11.510;2023-02-01T10:33:15;4.63;;;3.40;;
7693;SDS011;3889;48.162;11.510;2023-02-01T10:35:45;4.57;;;3.65;;
7693;SDS011;3889;48.162;11.510;2023-02-01T10:38:17;4.63;;;3.58;;
7693;SDS011;3889;48.162;11.510;2023-02-01T10:40:55;4.50;;;3.30;;
7693;SDS011;3889;48.162;11.510;2023-02-01T10:43:27;3.90;;;3.27;;
7693;SDS011;3889;48.162;11.510;2023-02-01T10:45:56;4.13;;;3.45;;
7693;SDS011;3889;48.162;11.510;2023-02-01T10:48:24;4.50;;;3.20;;
7693;SDS011;3889;48.162;11.510;2023-02-01T10:50:57;3.40;;;2.90;;
7693;SDS011;3889;48.162;11.510;2023-02-01T10:53:28;5.05;;;3.25;;
7693;SDS011;3889;48.162;11.510;2023-02-01T10:56:05;5.15;;;3.00;;
7693;SDS011;3889;48.162;11.510;2023-02-01T10:58:34;5.20;;;3.50;;
7693;SDS011;3889;48.162;11.510;2023-02-01T11:01:15;6.05;;;3.80;;
7693;SDS011;3889;48.162;11.510;2023-02-01T11:03:45;3.92;;;3.53;;
7693;SDS011;3889;48.162;11.510;2023-02-01T11:06:27;4.07;;;3.40;;
7693;SDS011;3889;48.162;11.510;2023-02-01T11:08:57;3.97;;;3.08;;
7693;SDS011;3889;48.162;11.510;2023-02-01T11:11:27;4.50;;;3.80;;
7693;SDS011;3889;48.162;11.510;2023-02-01T11:13:56;3.70;;;3.40;;
7693;SDS011;3889;48.162;11.510;2023-02-01T11:16:32;4.70;;;3.95;;
7693;SDS011;3889;48.162;11.510;2023-02-01T11:19:01;4.20;;;3.60;;
7693;SDS011;3889;48.162;11.510;2023-02-01T11:21:30;4.13;;;3.72;;
7693;SDS011;3889;48.162;11.510;2023-02-01T11:24:00;3.90;;;3.50;;
7693;SDS011;3889;48.162;11.510;2023-02-01T11:26:29;3.92;;;3.38;;
7693;SDS011;3889;48.162;11.510;2023-02-01T11:28:59;4.05;;;3.65;;
7693;SDS011;3889;48.162;11.510;2023-02-01T11:31:32;4.00;;;3.63;;
7693;SDS011;3889;48.162;11.510;2023-02-01T11:34:05;4.25;;;3.85;;
7693;SDS011;3889;48.162;11.510;2023-02-01T11:36:36;6.32;;;4.20;;
7693;SDS011;3889;48.162;11.510;2023-02-01T11:39:09;4.43;;;3.75;;
7693;SDS011;3889;48.162;11.510;2023-02-01T11:41:54;5.68;;;3.90;;
7693;SDS011;3889;48.162;11.510;2023-02-01T11:44:28;4.37;;;3.50;;
7693;SDS011;3889;48.162;11.510;2023-02-01T11:47:20;6.70;;;4.28;;
7693;SDS011;3889;48.162;11.510;2023-02-01T11:49:50;5.22;;;4.20;;
7693;SDS011;3889;48.162;11.510;2023-02-01T11:52:30;5.03;;;4.13;;
7693;SDS011;3889;48.162;11.510;2023-02-01T11:55:14;5.00;;;4.50;;
7693;SDS011;3889;48.162;11.510;2023-02-01T11:57:55;5.43;;;4.50;;
7693;SDS011;3889;48.162;11.510;2023-02-01T12:00:40;5.32;;;4.32;;
7693;SDS011;3889;48.162;11.510;2023-02-01T12:03:36;6.35;;;4.53;;
7693;SDS011;3889;48.162;11.510;2023-02-01T12:06:25;5.13;;;4.43;;
7693;SDS011;3889;48.162;11.510;2023-02-01T12:09:04;5.65;;;4.72;;
7693;SDS011;3889;48.162;11.510;2023-02-01T12:11:43;6.78;;;4.53;;
7693;SDS011;3889;48.162;11.510;2023-02-01T12:14:27;8.13;;;5.60;;
7693;SDS011;3889;48.162;11.510;2023-02-01T12:17:12;5.53;;;4.13;;
7693;SDS011;3889;48.162;11.510;2023-02-01T12:20:27;8.35;;;4.70;;
7693;SDS011;3889;48.162;11.510;2023-02-01T12:23:12;5.63;;;4.10;;
7693;SDS011;3889;48.162;11.510;2023-02-01T12:25:55;7.40;;;4.60;;
7693;SDS011;3889;48.162;11.510;2023-02-01T12:28:41;5.93;;;4.43;;
7693;SDS011;3889;48.162;11.510;2023-02-01T12:31:27;6.90;;;4.90;;
7693;SDS011;3889;48.162;11.510;2023-02-01T12:34:08;5.25;;;4.40;;
7693;SDS011;3889;48.162;11.510;2023-02-01T12:36:54;6.30;;;4.50;;
7693;SDS011;3889;48.162;11.510;2023-02-01T12:39:35;6.13;;;4.60;;
7693;SDS011;3889;48.162;11.510;2023-02-01T12:42:08;7.50;;;4.70;;
7693;SDS011;3889;48.162;11.510;2023-02-01T12:44:43;5.40;;;4.35;;
7693;SDS011;3889;48.162;11.510;2023-02-01T12:47:19;7.68;;;4.38;;
7693;SDS011;3889;48.162;11.510;2023-02-01T12:49:54;6.32;;;4.28;;
7693;SDS011;3889;48.162;11.510;2023-02-01T12:52:29;6.32;;;4.32;;
7693;SDS011;3889;48.162;11.510;2023-02-01T12:55:03;7.75;;;4.57;;
7693;SDS011;3889;48.162;11.510;2023-02-01T12:57:37;6.60;;;4.30;;
7693;SDS011;3889;48.162;11.510;2023-02-01T13:00:13;5.82;;;4.07;;
7693;SDS011;3889;48.162;11.510;2023-02-01T13:02:50;5.13;;;3.83;;
7693;SDS011;3889;48.162;11.510;2023-02-01T13:05:24;7.15;;;4.03;;
7693;SDS011;3889;48.162;11.510;2023-02-01T13:07:59;5.35;;;3.47;;
7693;SDS011;3889;48.162;11.510;2023-02-01T13:10:32;6.32;;;3.90;;
7693;SDS011;3889;48.162;11.510;2023-02-01T13:13:04;6.53;;;3.80;;
7693;SDS011;3889;48.162;11.510;2023-02-01T13:15:40;5.45;;;3.53;;
7693;SDS011;3889;48.162;11.510;2023-02-01T13:18:14;4.45;;;3.55;;
7693;SDS011;3889;48.162;11.510;2023-02-01T13:20:47;5.13;;;3.45;;
7693;SDS011;3889;48.162;11.510;2023-02-01T13:23:22;5.13;;;3.83;;
7693;SDS011;3889;48.162;11.510;2023-02-01T13:25:53;4.35;;;3.55;;
7693;SDS011;3889;48.162;11.510;2023-02-01T13:28:24;4.80;;;3.55;;
7693;SDS011;3889;48.162;11.510;2023-02-01T13:31:02;5.20;;;3.55;;
7693;SDS011;3889;48.162;11.510;2023-02-01T13:36:49;5.43;;;3.75;;
7693;SDS011;3889;48.162;11.510;2023-02-01T13:39:35;4.30;;;3.80;;
7693;SDS011;3889;48.162;11.510;2023-02-01T13:42:19;4.20;;;3.80;;
7693;SDS011;3889;48.162;11.510;2023-02-01T13:44:50;4.95;;;4.10;;
7693;SDS011;3889;48.162;11.510;2023-02-01T13:47:22;4.90;;;3.85;;
7693;SDS011;3889;48.162;11.510;2023-02-01T13:49:54;4.75;;;3.80;;
7693;SDS011;3889;48.162;11.510;2023-02-01T13:52:26;6.03;;;3.60;;
7693;SDS011;3889;48.162;11.510;2023-02-01T13:55:13;4.65;;;3.85;;
7693;SDS011;3889;48.162;11.510;2023-02-01T13:57:43;4.85;;;3.88;;
7693;SDS011;3889;48.162;11.510;2023-02-01T14:00:25;5.82;;;4.22;;
7693;SDS011;3889;48.162;11.510;2023-02-01T14:03:02;6.00;;;4.03;;
7693;SDS011;3889;48.162;11.510;2023-02-01T14:08:38;4.40;;;3.90;;
7693;SDS011;3889;48.162;11.510;2023-02-01T14:11:35;6.70;;;4.88;;
7693;SDS011;3889;48.162;11.510;2023-02-01T14:14:37;4.10;;;3.70;;
7693;SDS011;3889;48.162;11.510;2023-02-01T14:23:09;4.30;;;3.90;;
7693;SDS011;3889;48.162;11.510;2023-02-01T14:25:41;4.45;;;3.30;;
7693;SDS011;3889;48.162;11.510;2023-02-01T14:28:21;4.38;;;3.28;;
7693;SDS011;3889;48.162;11.510;2023-02-01T14:30:53;3.65;;;3.33;;
7693;SDS011;3889;48.162;11.510;2023-02-01T14:33:24;5.03;;;3.80;;
7693;SDS011;3889;48.162;11.510;2023-02-01T14:35:59;4.57;;;3.42;;
7693;SDS011;3889;48.162;11.510;2023-02-01T14:38:34;4.68;;;3.40;;
7693;SDS011;3889;48.162;11.510;2023-02-01T14:41:16;4.68;;;3.28;;
7693;SDS011;3889;48.162;11.510;2023-02-01T14:44:23;4.40;;;3.50;;
7693;SDS011;3889;48.162;11.510;2023-02-01T14:47:04;5.60;;;3.55;;
7693;SDS011;3889;48.162;11.510;2023-02-01T14:49:34;4.97;;;3.10;;
7693;SDS011;3889;48.162;11.510;2023-02-01T14:52:06;5.75;;;3.70;;
7693;SDS011;3889;48.162;11.510;2023-02-01T14:54:40;6.20;;;3.20;;
7693;SDS011;3889;48.162;11.510;2023-02-01T14:57:12;6.47;;;3.22;;
7693;SDS011;3889;48.162;11.510;2023-02-01T14:59:45;4.50;;;3.20;;
7693;SDS011;3889;48.162;11.510;2023-02-01T15:02:18;3.60;;;3.00;;
7693;SDS011;3889;48.162;11.510;2023-02-01T15:04:53;5.95;;;3.20;;
7693;SDS011;3889;48.162;11.510;2023-02-01T15:07:22;4.20;;;3.03;;
7693;SDS011;3889;48.162;11.510;2023-02-01T15:09:51;4.93;;;3.05;;
7693;SDS011;3889;48.162;11.510;2023-02-01T15:12:23;5.63;;;3.40;;
7693;SDS011;3889;48.162;11.510;2023-02-01T15:15:09;4.20;;;3.17;;
7693;SDS011;3889;48.162;11.510;2023-02-01T15:17:39;5.65;;;3.40;;
7693;SDS011;3889;48.162;11.510;2023-02-01T15:20:12;5.28;;;3.03;;
7693;SDS011;3889;48.162;11.510;2023-02-01T15:22:51;3.88;;;3.03;;
7693;SDS011;3889;48.162;11.510;2023-02-01T15:25:21;5.22;;;3.30;;
7693;SDS011;3889;48.162;11.510;2023-02-01T15:27:51;6.00;;;3.20;;
7693;SDS011;3889;48.162;11.510;2023-02-01T15:30:22;5.03;;;3.33;;
7693;SDS011;3889;48.162;11.510;2023-02-01T15:33:02;5.35;;;3.50;;
7693;SDS011;3889;48.162;11.510;2023-02-01T15:35:37;8.48;;;3.30;;
7693;SDS011;3889;48.162;11.510;2023-02-01T15:38:29;6.13;;;3.08;;
7693;SDS011;3889;48.162;11.510;2023-02-01T15:41:04;7.82;;;3.10;;
7693;SDS011;3889;48.162;11.510;2023-02-01T15:43:36;7.13;;;3.20;;
7693;SDS011;3889;48.162;11.510;2023-02-01T15:46:08;6.07;;;2.85;;
7693;SDS011;3889;48.162;11.510;2023-02-01T15:48:42;4.63;;;2.83;;